sensor_id;sensor_type;location;lat;lon;timestamp;pressure;altitude;pressure_sealevel;temperature;humidity
60055;BME280;45930;53.514;55.904;2023-07-13T00:00:17;48850.72;;;-149.77;74.68
60055;BME280;45930;53.514;55.904;2023-07-13T00:01:18;48866.56;;;-149.77;75.19
60055;BME280;45930;53.514;55.904;2023-07-13T00:02:19;48850.72;;;-149.77;75.78
60055;BME280;45930;53.514;55.904;2023-07-13T00:03:19;48824.97;;;-149.77;76.45
60055;BME280;45930;53.514;55.904;2023-07-13T00:04:22;48834.88;;;-149.77;75.14
60055;BME280;45930;53.514;55.904;2023-07-13T00:05:23;48834.88;;;-149.77;75.37
60055;BME280;45930;53.514;55.904;2023-07-13T00:06:24;48826.94;;;-149.77;76.09
60055;BME280;45930;53.514;55.904;2023-07-13T00:07:25;48815.06;;;-149.77;76.63
60055;BME280;45930;53.514;55.904;2023-07-13T00:08:26;48815.06;;;-149.77;76.47
60055;BME280;45930;53.514;55.904;2023-07-13T00:09:26;48791.28;;;-149.77;76.92
60055;BME280;45930;53.514;55.904;2023-07-13T00:10:27;48793.28;;;-149.77;77.24
60055;BME280;45930;53.514;55.904;2023-07-13T00:11:28;48807.16;;;-149.77;77.22
60055;BME280;45930;53.514;55.904;2023-07-13T00:12:34;48813.09;;;-149.77;76.71
60055;BME280;45930;53.514;55.904;2023-07-13T00:13:36;48805.16;;;-149.77;76.81
60055;BME280;45930;53.514;55.904;2023-07-13T00:14:38;48823.00;;;-149.77;76.74
60055;BME280;45930;53.514;55.904;2023-07-13T00:15:39;48811.09;;;-149.77;76.55
60055;BME280;45930;53.514;55.904;2023-07-13T00:16:41;48828.94;;;-149.77;75.81
60055;BME280;45930;53.514;55.904;2023-07-13T00:17:44;48844.78;;;-149.77;75.18
60055;BME280;45930;53.514;55.904;2023-07-13T00:18:46;48842.78;;;-149.77;74.42
60055;BME280;45930;53.514;55.904;2023-07-13T00:19:47;48862.59;;;-149.77;74.10
60055;BME280;45930;53.514;55.904;2023-07-13T00:20:47;48846.75;;;-149.77;73.78
60055;BME280;45930;53.514;55.904;2023-07-13T00:21:48;48872.50;;;-149.77;73.38
60055;BME280;45930;53.514;55.904;2023-07-13T00:22:49;48880.44;;;-149.77;73.22
60055;BME280;45930;53.514;55.904;2023-07-13T00:23:50;48902.22;;;-149.77;72.37
60055;BME280;45930;53.514;55.904;2023-07-13T00:24:54;48884.38;;;-149.77;72.22
60055;BME280;45930;53.514;55.904;2023-07-13T00:25:56;48898.25;;;-149.77;72.61
60055;BME280;45930;53.514;55.904;2023-07-13T00:26:58;48904.19;;;-149.77;72.60
60055;BME280;45930;53.514;55.904;2023-07-13T00:27:58;48858.63;;;-149.77;73.13
60055;BME280;45930;53.514;55.904;2023-07-13T00:28:59;48904.19;;;-149.77;71.59
60055;BME280;45930;53.514;55.904;2023-07-13T00:30:00;48925.97;;;-149.77;71.59
60055;BME280;45930;53.514;55.904;2023-07-13T00:31:01;48904.19;;;-149.77;71.83
60055;BME280;45930;53.514;55.904;2023-07-13T00:32:06;48910.13;;;-149.77;71.76
60055;BME280;45930;53.514;55.904;2023-07-13T00:33:07;48904.19;;;-149.77;72.18
60055;BME280;45930;53.514;55.904;2023-07-13T00:34:07;48920.03;;;-149.77;72.05
60055;BME280;45930;53.514;55.904;2023-07-13T00:35:09;48894.28;;;-149.77;71.90
60055;BME280;45930;53.514;55.904;2023-07-13T00:36:10;48925.97;;;-149.77;72.03
60055;BME280;45930;53.514;55.904;2023-07-13T00:37:11;48880.44;;;-149.77;72.81
60055;BME280;45930;53.514;55.904;2023-07-13T00:38:12;48856.66;;;-149.77;73.75
60055;BME280;45930;53.514;55.904;2023-07-13T00:39:13;48860.63;;;-149.77;74.09
60055;BME280;45930;53.514;55.904;2023-07-13T00:40:15;48878.44;;;-149.77;74.27
60055;BME280;45930;53.514;55.904;2023-07-13T00:41:16;48878.44;;;-149.77;74.01
60055;BME280;45930;53.514;55.904;2023-07-13T00:42:17;48868.53;;;-149.77;73.66
60055;BME280;45930;53.514;55.904;2023-07-13T00:43:20;48886.38;;;-149.77;73.83
60055;BME280;45930;53.514;55.904;2023-07-13T00:44:21;48842.78;;;-149.77;74.96
60055;BME280;45930;53.514;55.904;2023-07-13T00:46:28;48850.72;;;-149.77;75.36
60055;BME280;45930;53.514;55.904;2023-07-13T00:47:29;48830.91;;;-149.77;75.63
60055;BME280;45930;53.514;55.904;2023-07-13T00:48:32;48826.94;;;-149.77;75.59
60055;BME280;45930;53.514;55.904;2023-07-13T00:49:35;48844.78;;;-149.77;75.76
60055;BME280;45930;53.514;55.904;2023-07-13T00:50:37;48811.09;;;-149.77;75.87
60055;BME280;45930;53.514;55.904;2023-07-13T00:51:51;48821.00;;;-149.77;76.11
60055;BME280;45930;53.514;55.904;2023-07-13T00:52:54;48823.00;;;-149.77;75.75
60055;BME280;45930;53.514;55.904;2023-07-13T00:54:00;48811.09;;;-149.77;75.69
60055;BME280;45930;53.514;55.904;2023-07-13T00:55:04;48819.03;;;-149.77;76.00
60055;BME280;45930;53.514;55.904;2023-07-13T00:56:06;48821.00;;;-149.77;76.07
60055;BME280;45930;53.514;55.904;2023-07-13T00:57:11;48819.03;;;-149.77;75.96
60055;BME280;45930;53.514;55.904;2023-07-13T00:58:13;48826.94;;;-149.77;75.45
60055;BME280;45930;53.514;55.904;2023-07-13T00:59:15;48830.91;;;-149.77;75.66
60055;BME280;45930;53.514;55.904;2023-07-13T01:00:19;48823.00;;;-149.77;75.98
60055;BME280;45930;53.514;55.904;2023-07-13T01:01:22;48805.16;;;-149.77;76.21
60055;BME280;45930;53.514;55.904;2023-07-13T01:02:23;48799.22;;;-149.77;76.41
60055;BME280;45930;53.514;55.904;2023-07-13T01:03:24;48775.47;;;-149.77;76.35
60055;BME280;45930;53.514;55.904;2023-07-13T01:04:26;48817.03;;;-149.77;75.75
60055;BME280;45930;53.514;55.904;2023-07-13T01:05:26;48836.84;;;-149.77;74.45
60055;BME280;45930;53.514;55.904;2023-07-13T01:06:28;48878.44;;;-149.77;73.10
60055;BME280;45930;53.514;55.904;2023-07-13T01:07:28;48848.72;;;-149.77;74.37
60055;BME280;45930;53.514;55.904;2023-07-13T01:08:30;48799.22;;;-149.77;75.90
60055;BME280;45930;53.514;55.904;2023-07-13T01:09:30;48791.28;;;-149.77;76.99
60055;BME280;45930;53.514;55.904;2023-07-13T01:10:31;48791.28;;;-149.77;77.52
60055;BME280;45930;53.514;55.904;2023-07-13T01:11:40;48773.47;;;-149.77;77.51
60055;BME280;45930;53.514;55.904;2023-07-13T01:12:42;48761.59;;;-149.77;77.94
60055;BME280;45930;53.514;55.904;2023-07-13T01:13:43;48771.50;;;-149.77;77.40
60055;BME280;45930;53.514;55.904;2023-07-13T01:14:44;48755.66;;;-149.77;77.64
60055;BME280;45930;53.514;55.904;2023-07-13T01:15:47;48753.66;;;-149.77;77.71
60055;BME280;45930;53.514;55.904;2023-07-13T01:16:49;48781.41;;;-149.77;77.42
60055;BME280;45930;53.514;55.904;2023-07-13T01:17:50;48773.47;;;-149.77;77.13
60055;BME280;45930;53.514;55.904;2023-07-13T01:18:51;48777.44;;;-149.77;77.16
60055;BME280;45930;53.514;55.904;2023-07-13T01:19:52;48803.19;;;-149.77;76.78
60055;BME280;45930;53.514;55.904;2023-07-13T01:20:58;48815.06;;;-149.77;76.51
60055;BME280;45930;53.514;55.904;2023-07-13T01:21:59;48793.28;;;-149.77;76.79
60055;BME280;45930;53.514;55.904;2023-07-13T01:23:00;48763.56;;;-149.77;76.87
60055;BME280;45930;53.514;55.904;2023-07-13T01:24:01;48757.63;;;-149.77;77.38
60055;BME280;45930;53.514;55.904;2023-07-13T01:25:03;48775.47;;;-149.77;77.54
60055;BME280;45930;53.514;55.904;2023-07-13T01:26:03;48751.69;;;-149.77;78.10
60055;BME280;45930;53.514;55.904;2023-07-13T01:27:05;48779.41;;;-149.77;78.37
60055;BME280;45930;53.514;55.904;2023-07-13T01:28:08;48747.72;;;-149.77;78.32
60055;BME280;45930;53.514;55.904;2023-07-13T01:29:10;48767.53;;;-149.77;78.84
60055;BME280;45930;53.514;55.904;2023-07-13T01:30:10;48737.81;;;-149.77;78.88
60055;BME280;45930;53.514;55.904;2023-07-13T01:31:11;48741.78;;;-149.77;78.26
60055;BME280;45930;53.514;55.904;2023-07-13T01:32:21;48763.56;;;-149.77;77.96
60055;BME280;45930;53.514;55.904;2023-07-13T01:33:25;48777.44;;;-149.77;78.39
60055;BME280;45930;53.514;55.904;2023-07-13T01:34:27;48737.81;;;-149.77;79.39
60055;BME280;45930;53.514;55.904;2023-07-13T01:35:28;48733.88;;;-149.77;79.88
60055;BME280;45930;53.514;55.904;2023-07-13T01:36:28;48712.06;;;-149.77;79.79
60055;BME280;45930;53.514;55.904;2023-07-13T01:37:29;48723.97;;;-149.77;79.17
60055;BME280;45930;53.514;55.904;2023-07-13T01:38:36;48731.88;;;-149.77;78.48
60055;BME280;45930;53.514;55.904;2023-07-13T01:39:38;48759.59;;;-149.77;77.98
60055;BME280;45930;53.514;55.904;2023-07-13T01:40:39;48757.63;;;-149.77;77.60
60055;BME280;45930;53.514;55.904;2023-07-13T01:41:40;48795.25;;;-149.77;76.63
60055;BME280;45930;53.514;55.904;2023-07-13T01:42:41;48785.34;;;-149.77;76.14
60055;BME280;45930;53.514;55.904;2023-07-13T01:43:42;48787.34;;;-149.77;76.01
60055;BME280;45930;53.514;55.904;2023-07-13T01:44:43;48793.28;;;-149.77;76.62
60055;BME280;45930;53.514;55.904;2023-07-13T01:45:44;48777.44;;;-149.77;77.00
60055;BME280;45930;53.514;55.904;2023-07-13T01:46:45;48771.50;;;-149.77;77.57
60055;BME280;45930;53.514;55.904;2023-07-13T01:47:46;48759.59;;;-149.77;77.46
60055;BME280;45930;53.514;55.904;2023-07-13T01:48:47;48733.88;;;-149.77;77.72
60055;BME280;45930;53.514;55.904;2023-07-13T01:49:48;48747.72;;;-149.77;78.37
60055;BME280;45930;53.514;55.904;2023-07-13T01:50:50;48747.72;;;-149.77;78.31
60055;BME280;45930;53.514;55.904;2023-07-13T01:51:51;48751.69;;;-149.77;78.69
60055;BME280;45930;53.514;55.904;2023-07-13T01:52:52;48729.91;;;-149.77;78.67
60055;BME280;45930;53.514;55.904;2023-07-13T01:53:53;48721.97;;;-149.77;78.66
60055;BME280;45930;53.514;55.904;2023-07-13T01:54:53;48753.66;;;-149.77;78.00
60055;BME280;45930;53.514;55.904;2023-07-13T01:55:54;48779.41;;;-149.77;77.63
60055;BME280;45930;53.514;55.904;2023-07-13T01:56:55;48779.41;;;-149.77;77.58
60055;BME280;45930;53.514;55.904;2023-07-13T01:57:56;48765.56;;;-149.77;77.45
60055;BME280;45930;53.514;55.904;2023-07-13T01:58:57;48771.50;;;-149.77;77.08
60055;BME280;45930;53.514;55.904;2023-07-13T01:59:58;48759.59;;;-149.77;77.08
60055;BME280;45930;53.514;55.904;2023-07-13T02:00:58;48747.72;;;-149.77;77.88
60055;BME280;45930;53.514;55.904;2023-07-13T02:01:59;48739.81;;;-149.77;78.13
60055;BME280;45930;53.514;55.904;2023-07-13T02:03:00;48757.63;;;-149.77;78.15
60055;BME280;45930;53.514;55.904;2023-07-13T02:04:01;48749.72;;;-149.77;78.05
60055;BME280;45930;53.514;55.904;2023-07-13T02:05:02;48755.66;;;-149.77;77.98
60055;BME280;45930;53.514;55.904;2023-07-13T02:06:04;48747.72;;;-149.77;77.84
60055;BME280;45930;53.514;55.904;2023-07-13T02:07:05;48767.53;;;-149.77;78.03
60055;BME280;45930;53.514;55.904;2023-07-13T02:08:06;48731.88;;;-149.77;78.40
60055;BME280;45930;53.514;55.904;2023-07-13T02:09:06;48731.88;;;-149.77;78.13
60055;BME280;45930;53.514;55.904;2023-07-13T02:10:09;48777.44;;;-149.77;76.89
60055;BME280;45930;53.514;55.904;2023-07-13T02:11:10;48787.34;;;-149.77;76.45
60055;BME280;45930;53.514;55.904;2023-07-13T02:12:11;48775.47;;;-149.77;75.92
60055;BME280;45930;53.514;55.904;2023-07-13T02:13:11;48815.06;;;-149.77;74.92
60055;BME280;45930;53.514;55.904;2023-07-13T02:14:12;48824.97;;;-149.77;74.28
60055;BME280;45930;53.514;55.904;2023-07-13T02:15:14;48838.84;;;-149.77;73.32
60055;BME280;45930;53.514;55.904;2023-07-13T02:16:15;48854.69;;;-149.77;73.29
60055;BME280;45930;53.514;55.904;2023-07-13T02:17:16;48846.75;;;-149.77;73.96
60055;BME280;45930;53.514;55.904;2023-07-13T02:18:17;48799.22;;;-149.77;74.42
60055;BME280;45930;53.514;55.904;2023-07-13T02:19:18;48824.97;;;-149.77;74.12
60055;BME280;45930;53.514;55.904;2023-07-13T02:20:19;48840.81;;;-149.77;73.68
60055;BME280;45930;53.514;55.904;2023-07-13T02:21:19;48842.78;;;-149.77;73.32
60055;BME280;45930;53.514;55.904;2023-07-13T02:22:21;48862.59;;;-149.77;72.94
60055;BME280;45930;53.514;55.904;2023-07-13T02:23:22;48836.84;;;-149.77;73.30
60055;BME280;45930;53.514;55.904;2023-07-13T02:24:23;48824.97;;;-149.77;73.34
60055;BME280;45930;53.514;55.904;2023-07-13T02:25:24;48854.69;;;-149.77;73.28
60055;BME280;45930;53.514;55.904;2023-07-13T02:26:26;48896.28;;;-149.77;72.43
60055;BME280;45930;53.514;55.904;2023-07-13T02:27:27;48854.69;;;-149.77;72.38
60055;BME280;45930;53.514;55.904;2023-07-13T02:28:28;48870.53;;;-149.77;72.31
60055;BME280;45930;53.514;55.904;2023-07-13T02:29:29;48884.38;;;-149.77;71.93
60055;BME280;45930;53.514;55.904;2023-07-13T02:30:30;48866.56;;;-149.77;70.99
60055;BME280;45930;53.514;55.904;2023-07-13T02:31:31;48906.16;;;-149.77;69.76
60055;BME280;45930;53.514;55.904;2023-07-13T02:32:32;48935.88;;;-149.77;68.73
60055;BME280;45930;53.514;55.904;2023-07-13T02:33:32;48953.72;;;-149.77;67.79
60055;BME280;45930;53.514;55.904;2023-07-13T02:34:34;48983.41;;;-149.77;66.92
60055;BME280;45930;53.514;55.904;2023-07-13T02:35:34;48963.63;;;-149.77;66.11
60055;BME280;45930;53.514;55.904;2023-07-13T02:36:35;48997.28;;;-149.77;65.71
60055;BME280;45930;53.514;55.904;2023-07-13T02:37:36;49001.25;;;-149.77;65.13
60055;BME280;45930;53.514;55.904;2023-07-13T02:38:37;49021.06;;;-149.77;64.69
60055;BME280;45930;53.514;55.904;2023-07-13T02:39:38;49021.06;;;-149.77;64.32
60055;BME280;45930;53.514;55.904;2023-07-13T02:40:39;49023.03;;;-149.77;63.85
60055;BME280;45930;53.514;55.904;2023-07-13T02:41:39;49032.94;;;-149.77;63.67
60055;BME280;45930;53.514;55.904;2023-07-13T02:42:41;49023.03;;;-149.77;64.04
60055;BME280;45930;53.514;55.904;2023-07-13T02:43:41;49040.84;;;-149.77;63.85
60055;BME280;45930;53.514;55.904;2023-07-13T02:44:42;49038.88;;;-149.77;63.68
60055;BME280;45930;53.514;55.904;2023-07-13T02:45:44;49019.06;;;-149.77;63.88
60055;BME280;45930;53.514;55.904;2023-07-13T02:46:45;49034.91;;;-149.77;63.24
60055;BME280;45930;53.514;55.904;2023-07-13T02:47:45;49096.31;;;-149.77;61.56
60055;BME280;45930;53.514;55.904;2023-07-13T02:48:46;49068.59;;;-149.77;59.88
60055;BME280;45930;53.514;55.904;2023-07-13T02:49:47;49120.09;;;-149.77;59.07
60055;BME280;45930;53.514;55.904;2023-07-13T02:50:48;49112.16;;;-149.77;58.35
60055;BME280;45930;53.514;55.904;2023-07-13T02:51:48;49108.19;;;-149.77;56.87
60055;BME280;45930;53.514;55.904;2023-07-13T02:52:49;49141.88;;;-149.77;56.22
60055;BME280;45930;53.514;55.904;2023-07-13T02:53:50;49133.94;;;-149.77;56.02
60055;BME280;45930;53.514;55.904;2023-07-13T02:54:51;49181.50;;;-149.77;55.27
60055;BME280;45930;53.514;55.904;2023-07-13T02:55:52;49165.63;;;-149.77;54.14
60055;BME280;45930;53.514;55.904;2023-07-13T02:56:53;49159.69;;;-149.77;54.13
60055;BME280;45930;53.514;55.904;2023-07-13T02:57:53;49145.84;;;-149.77;54.51
60055;BME280;45930;53.514;55.904;2023-07-13T02:58:54;49153.75;;;-149.77;54.26
60055;BME280;45930;53.514;55.904;2023-07-13T02:59:55;49155.75;;;-149.77;54.04
60055;BME280;45930;53.514;55.904;2023-07-13T03:00:56;49151.78;;;-149.77;54.19
60055;BME280;45930;53.514;55.904;2023-07-13T03:01:58;49195.34;;;-149.77;54.57
60055;BME280;45930;53.514;55.904;2023-07-13T03:02:59;49163.66;;;-149.77;54.97
60055;BME280;45930;53.514;55.904;2023-07-13T03:04:00;49169.59;;;-149.77;54.69
60055;BME280;45930;53.514;55.904;2023-07-13T03:05:01;49126.03;;;-149.77;54.36
60055;BME280;45930;53.514;55.904;2023-07-13T03:06:04;49155.75;;;-149.77;54.23
60055;BME280;45930;53.514;55.904;2023-07-13T03:07:06;49124.03;;;-149.77;54.36
60055;BME280;45930;53.514;55.904;2023-07-13T03:08:11;49139.91;;;-149.77;55.01
60055;BME280;45930;53.514;55.904;2023-07-13T03:09:12;49133.94;;;-149.77;54.87
60055;BME280;45930;53.514;55.904;2023-07-13T03:10:13;49167.63;;;-149.77;54.86
60055;BME280;45930;53.514;55.904;2023-07-13T03:11:17;49139.91;;;-149.77;54.35
60055;BME280;45930;53.514;55.904;2023-07-13T03:12:18;49141.88;;;-149.77;54.39
60055;BME280;45930;53.514;55.904;2023-07-13T03:13:19;49131.97;;;-149.77;54.46
60055;BME280;45930;53.514;55.904;2023-07-13T03:14:19;49139.91;;;-149.77;54.47
60055;BME280;45930;53.514;55.904;2023-07-13T03:15:20;49139.91;;;-149.77;54.39
60055;BME280;45930;53.514;55.904;2023-07-13T03:16:21;49153.75;;;-149.77;53.83
60055;BME280;45930;53.514;55.904;2023-07-13T03:17:22;49169.59;;;-149.77;53.66
60055;BME280;45930;53.514;55.904;2023-07-13T03:18:23;49187.44;;;-149.77;53.78
60055;BME280;45930;53.514;55.904;2023-07-13T03:19:24;49155.75;;;-149.77;53.94
60055;BME280;45930;53.514;55.904;2023-07-13T03:20:25;49163.66;;;-149.77;53.37
60055;BME280;45930;53.514;55.904;2023-07-13T03:21:26;49165.63;;;-149.77;52.94
60055;BME280;45930;53.514;55.904;2023-07-13T03:22:26;49183.47;;;-149.77;52.63
60055;BME280;45930;53.514;55.904;2023-07-13T03:23:27;49151.78;;;-149.77;52.72
60055;BME280;45930;53.514;55.904;2023-07-13T03:24:28;49179.50;;;-149.77;52.87
60055;BME280;45930;53.514;55.904;2023-07-13T03:25:29;49155.75;;;-149.77;53.43
60055;BME280;45930;53.514;55.904;2023-07-13T03:26:29;49165.63;;;-149.77;53.03
60055;BME280;45930;53.514;55.904;2023-07-13T03:27:30;49169.59;;;-149.77;52.38
60055;BME280;45930;53.514;55.904;2023-07-13T03:28:31;49167.63;;;-149.77;52.04
60055;BME280;45930;53.514;55.904;2023-07-13T03:29:32;49161.69;;;-149.77;51.90
60055;BME280;45930;53.514;55.904;2023-07-13T03:30:33;49195.34;;;-149.77;51.05
60055;BME280;45930;53.514;55.904;2023-07-13T03:31:36;49191.38;;;-149.77;50.47
60055;BME280;45930;53.514;55.904;2023-07-13T03:32:37;49177.53;;;-149.77;50.48
60055;BME280;45930;53.514;55.904;2023-07-13T03:33:38;49227.03;;;-149.77;49.83
60055;BME280;45930;53.514;55.904;2023-07-13T03:34:38;49183.47;;;-149.77;49.33
60055;BME280;45930;53.514;55.904;2023-07-13T03:35:40;49234.97;;;-149.77;49.25
60055;BME280;45930;53.514;55.904;2023-07-13T03:36:41;49207.25;;;-149.77;49.18
60055;BME280;45930;53.514;55.904;2023-07-13T03:37:42;49213.19;;;-149.77;48.83
60055;BME280;45930;53.514;55.904;2023-07-13T03:38:43;49219.13;;;-149.77;48.69
60055;BME280;45930;53.514;55.904;2023-07-13T03:39:44;49215.16;;;-149.77;48.63
60055;BME280;45930;53.514;55.904;2023-07-13T03:40:44;49227.03;;;-149.77;48.47
60055;BME280;45930;53.514;55.904;2023-07-13T03:41:45;49215.16;;;-149.77;48.31
60055;BME280;45930;53.514;55.904;2023-07-13T03:42:46;49234.97;;;-149.77;47.94
60055;BME280;45930;53.514;55.904;2023-07-13T03:43:47;49225.06;;;-149.77;47.64
60055;BME280;45930;53.514;55.904;2023-07-13T03:44:48;49248.84;;;-149.77;47.45
60055;BME280;45930;53.514;55.904;2023-07-13T03:45:52;49242.91;;;-149.77;47.47
60055;BME280;45930;53.514;55.904;2023-07-13T03:46:53;49242.91;;;-149.77;47.17
60055;BME280;45930;53.514;55.904;2023-07-13T03:47:54;49242.91;;;-149.77;47.01
60055;BME280;45930;53.514;55.904;2023-07-13T03:48:56;49264.69;;;-149.77;46.33
60055;BME280;45930;53.514;55.904;2023-07-13T03:49:57;49240.91;;;-149.77;46.01
60055;BME280;45930;53.514;55.904;2023-07-13T03:50:58;49256.75;;;-149.77;46.20
60055;BME280;45930;53.514;55.904;2023-07-13T03:51:59;49268.63;;;-149.77;45.89
60055;BME280;45930;53.514;55.904;2023-07-13T03:53:00;49250.81;;;-149.77;45.50
60055;BME280;45930;53.514;55.904;2023-07-13T03:54:01;49252.78;;;-149.77;45.35
60055;BME280;45930;53.514;55.904;2023-07-13T03:55:03;49280.53;;;-149.77;45.27
60055;BME280;45930;53.514;55.904;2023-07-13T03:56:06;49227.03;;;-149.77;45.30
60055;BME280;45930;53.514;55.904;2023-07-13T03:57:08;49234.97;;;-149.77;45.39
60055;BME280;45930;53.514;55.904;2023-07-13T03:58:39;49250.81;;;-149.77;45.23
60055;BME280;45930;53.514;55.904;2023-07-13T03:59:40;49258.75;;;-149.77;45.38
60055;BME280;45930;53.514;55.904;2023-07-13T04:00:41;49248.84;;;-149.77;45.29
60055;BME280;45930;53.514;55.904;2023-07-13T04:01:43;49262.69;;;-149.77;44.95
60055;BME280;45930;53.514;55.904;2023-07-13T04:02:44;49254.78;;;-149.77;44.65
60055;BME280;45930;53.514;55.904;2023-07-13T04:03:47;49266.66;;;-149.77;44.47
60055;BME280;45930;53.514;55.904;2023-07-13T04:04:48;49262.69;;;-149.77;44.52
60055;BME280;45930;53.514;55.904;2023-07-13T04:05:49;49272.59;;;-149.77;44.58
60055;BME280;45930;53.514;55.904;2023-07-13T04:06:50;49260.72;;;-149.77;44.54
60055;BME280;45930;53.514;55.904;2023-07-13T04:07:53;49280.53;;;-149.77;44.23
60055;BME280;45930;53.514;55.904;2023-07-13T04:08:56;49294.41;;;-149.77;43.86
60055;BME280;45930;53.514;55.904;2023-07-13T04:09:57;49264.69;;;-149.77;43.58
60055;BME280;45930;53.514;55.904;2023-07-13T04:10:58;49300.34;;;-149.77;43.50
60055;BME280;45930;53.514;55.904;2023-07-13T04:11:59;49292.41;;;-149.77;43.43
60055;BME280;45930;53.514;55.904;2023-07-13T04:13:00;49286.47;;;-149.77;43.38
60055;BME280;45930;53.514;55.904;2023-07-13T04:14:00;49278.53;;;-149.77;43.19
60055;BME280;45930;53.514;55.904;2023-07-13T04:15:01;49288.44;;;-149.77;42.98
60055;BME280;45930;53.514;55.904;2023-07-13T04:16:03;49302.31;;;-149.77;43.19
60055;BME280;45930;53.514;55.904;2023-07-13T04:17:04;49294.41;;;-149.77;43.33
60055;BME280;45930;53.514;55.904;2023-07-13T04:18:05;49286.47;;;-149.77;43.19
60055;BME280;45930;53.514;55.904;2023-07-13T04:19:08;49274.59;;;-149.77;43.04
60055;BME280;45930;53.514;55.904;2023-07-13T04:20:10;49296.38;;;-149.77;42.97
60055;BME280;45930;53.514;55.904;2023-07-13T04:21:12;49292.41;;;-149.77;42.89
60055;BME280;45930;53.514;55.904;2023-07-13T04:22:13;49318.16;;;-149.77;42.81
60055;BME280;45930;53.514;55.904;2023-07-13T04:23:13;49298.34;;;-149.77;42.85
60055;BME280;45930;53.514;55.904;2023-07-13T04:24:14;49280.53;;;-149.77;42.76
60055;BME280;45930;53.514;55.904;2023-07-13T04:25:15;49302.31;;;-149.77;42.15
60055;BME280;45930;53.514;55.904;2023-07-13T04:26:16;49318.16;;;-149.77;42.36
60055;BME280;45930;53.514;55.904;2023-07-13T04:27:17;49306.28;;;-149.77;42.09
60055;BME280;45930;53.514;55.904;2023-07-13T04:28:19;49300.34;;;-149.77;42.88
60055;BME280;45930;53.514;55.904;2023-07-13T04:29:20;49326.09;;;-149.77;42.23
60055;BME280;45930;53.514;55.904;2023-07-13T04:30:21;49316.19;;;-149.77;42.25
60055;BME280;45930;53.514;55.904;2023-07-13T04:31:22;49284.50;;;-149.77;41.65
60055;BME280;45930;53.514;55.904;2023-07-13T04:32:22;49343.91;;;-149.77;41.53
60055;BME280;45930;53.514;55.904;2023-07-13T04:33:24;49310.25;;;-149.77;41.93
60055;BME280;45930;53.514;55.904;2023-07-13T04:34:24;49341.94;;;-149.77;41.97
60055;BME280;45930;53.514;55.904;2023-07-13T04:35:25;49330.03;;;-149.77;41.64
60055;BME280;45930;53.514;55.904;2023-07-13T04:36:26;49330.03;;;-149.77;41.47
60055;BME280;45930;53.514;55.904;2023-07-13T04:37:27;49328.06;;;-149.77;41.72
60055;BME280;45930;53.514;55.904;2023-07-13T04:38:30;49353.81;;;-149.77;41.20
60055;BME280;45930;53.514;55.904;2023-07-13T04:39:31;49343.91;;;-149.77;40.51
60055;BME280;45930;53.514;55.904;2023-07-13T04:40:32;49355.78;;;-149.77;40.35
60055;BME280;45930;53.514;55.904;2023-07-13T04:41:33;49349.84;;;-149.77;40.45
60055;BME280;45930;53.514;55.904;2023-07-13T04:42:34;49349.84;;;-149.77;40.26
60055;BME280;45930;53.514;55.904;2023-07-13T04:43:36;49363.72;;;-149.77;40.11
60055;BME280;45930;53.514;55.904;2023-07-13T04:44:36;49353.81;;;-149.77;40.10
60055;BME280;45930;53.514;55.904;2023-07-13T04:45:37;49359.75;;;-149.77;39.98
60055;BME280;45930;53.514;55.904;2023-07-13T04:46:38;49337.97;;;-149.77;39.21
60055;BME280;45930;53.514;55.904;2023-07-13T04:47:39;49351.84;;;-149.77;38.96
60055;BME280;45930;53.514;55.904;2023-07-13T04:48:41;49353.81;;;-149.77;39.70
60055;BME280;45930;53.514;55.904;2023-07-13T04:49:42;49359.75;;;-149.77;40.01
60055;BME280;45930;53.514;55.904;2023-07-13T04:50:42;49369.66;;;-149.77;40.20
60055;BME280;45930;53.514;55.904;2023-07-13T04:51:44;49371.66;;;-149.77;39.85
60055;BME280;45930;53.514;55.904;2023-07-13T04:52:44;49389.47;;;-149.77;39.50
60055;BME280;45930;53.514;55.904;2023-07-13T04:53:45;49405.31;;;-149.77;38.78
60055;BME280;45930;53.514;55.904;2023-07-13T04:54:46;49399.38;;;-149.77;38.85
60055;BME280;45930;53.514;55.904;2023-07-13T04:55:47;49389.47;;;-149.77;38.19
60055;BME280;45930;53.514;55.904;2023-07-13T04:56:47;49401.34;;;-149.77;37.63
60055;BME280;45930;53.514;55.904;2023-07-13T04:57:48;49421.16;;;-149.77;37.92
60055;BME280;45930;53.514;55.904;2023-07-13T04:58:49;49444.94;;;-149.77;38.01
60055;BME280;45930;53.514;55.904;2023-07-13T04:59:50;49427.09;;;-149.77;37.58
60055;BME280;45930;53.514;55.904;2023-07-13T05:00:51;49423.16;;;-149.77;37.66
60055;BME280;45930;53.514;55.904;2023-07-13T05:01:52;49431.06;;;-149.77;38.19
60055;BME280;45930;53.514;55.904;2023-07-13T05:02:57;49427.09;;;-149.77;38.21
60055;BME280;45930;53.514;55.904;2023-07-13T05:03:59;49442.97;;;-149.77;37.96
60055;BME280;45930;53.514;55.904;2023-07-13T05:05:00;49446.91;;;-149.77;37.04
60055;BME280;45930;53.514;55.904;2023-07-13T05:06:07;49423.16;;;-149.77;37.06
60055;BME280;45930;53.514;55.904;2023-07-13T05:07:10;49456.81;;;-149.77;36.65
60055;BME280;45930;53.514;55.904;2023-07-13T05:08:11;49452.84;;;-149.77;35.79
60055;BME280;45930;53.514;55.904;2023-07-13T05:09:11;49454.84;;;-149.77;35.93
60055;BME280;45930;53.514;55.904;2023-07-13T05:10:13;49484.56;;;-149.77;36.75
60055;BME280;45930;53.514;55.904;2023-07-13T05:11:14;49488.50;;;-149.77;36.27
60055;BME280;45930;53.514;55.904;2023-07-13T05:12:15;49492.47;;;-149.77;36.21
60055;BME280;45930;53.514;55.904;2023-07-13T05:13:15;49472.66;;;-149.77;35.71
60055;BME280;45930;53.514;55.904;2023-07-13T05:14:16;49518.22;;;-149.77;35.24